Time;durP1;ratioP1;P1;durP2;ratioP2;P2;SDS_P1;SDS_P2;PMS_P1;PMS_P2;Temp;Humidity;BMP_temperature;BMP_pressure;BME280_temperature;BME280_humidity;BME280_pressure;Samples;Min_cycle;Max_cycle;Signal;HPM_P1;HPM_P2
2023/03/06 00:01:47;;;;;;;;;;;4.30;99.90;;;;;;5110993;28;19912;-73
2023/03/06 00:04:13;;;;;;;;;;;4.30;99.90;;;;;;5110525;28;19916;-74
2023/03/06 00:06:39;;;;;;;;;;;4.30;99.90;;;;;;5110856;28;19965;-73
2023/03/06 00:09:04;;;;;;;;;;;4.30;99.90;;;;;;5091994;28;19920;-73
2023/03/06 00:11:30;;;;;;;;;;;4.30;99.90;;;;;;5089532;28;19912;-74
2023/03/06 00:13:55;;;;;;;;;;;4.30;99.90;;;;;;5089949;28;19918;-73
2023/03/06 00:16:21;;;;;;;;;;;4.30;99.90;;;;;;5089732;28;19965;-73
2023/03/06 00:18:46;;;;;;;;;;;4.30;99.90;;;;;;5090071;28;20006;-74
2023/03/06 00:21:12;;;;;;;;;;;4.30;99.90;;;;;;5090836;28;19919;-73
2023/03/06 00:23:38;;;;;;;;;;;4.30;99.90;;;;;;5108910;28;19916;-73
2023/03/06 00:26:05;;;;;;;;;;;4.30;99.90;;;;;;5110457;28;19965;-73
2023/03/06 00:28:31;;;;;;;;;;;4.30;99.90;;;;;;5110469;28;20365;-73
2023/03/06 00:30:56;;;;;;;;;;;4.30;99.90;;;;;;5110034;28;19912;-73
2023/03/06 00:33:22;;;;;;;;;;;4.30;99.90;;;;;;5107567;28;19915;-74
2023/03/06 00:35:47;;;;;;;;;;;4.30;99.90;;;;;;5110040;28;20026;-73
2023/03/06 00:38:13;;;;;;;;;;;4.30;99.90;;;;;;5101306;28;19919;-73
2023/03/06 00:40:39;;;;;;;;;;;4.30;99.90;;;;;;5088782;28;19920;-73
2023/03/06 00:43:04;;;;;;;;;;;4.30;99.90;;;;;;5069615;28;20387;-73
2023/03/06 00:45:30;;;;;;;;;;;4.30;99.90;;;;;;5076036;28;20536;-73
2023/03/06 00:47:55;;;;;;;;;;;4.30;99.90;;;;;;5089562;28;19912;-73
2023/03/06 00:50:21;;;;;;;;;;;4.30;99.90;;;;;;5089214;28;19908;-73
2023/03/06 00:52:46;;;;;;;;;;;4.30;99.90;;;;;;5091140;28;20380;-73
2023/03/06 00:55:12;;;;;;;;;;;4.30;99.90;;;;;;5096372;28;20387;-73
2023/03/06 00:57:37;;;;;;;;;;;4.20;99.90;;;;;;5089436;28;19912;-73
2023/03/06 01:00:04;;;;;;;;;;;4.20;99.90;;;;;;5089352;28;20007;-73
2023/03/06 01:02:29;;;;;;;;;;;4.20;99.90;;;;;;5089027;28;19981;-73
2023/03/06 01:04:55;;;;;;;;;;;4.30;99.90;;;;;;5088914;28;19909;-73
2023/03/06 01:07:21;;;;;;;;;;;4.20;99.90;;;;;;5087827;28;19908;-73
2023/03/06 01:09:46;;;;;;;;;;;4.20;99.90;;;;;;5085154;28;19916;-73
2023/03/06 01:12:11;;;;;;;;;;;4.20;99.90;;;;;;5089369;28;19916;-73
2023/03/06 01:14:37;;;;;;;;;;;4.20;99.90;;;;;;5088686;28;19917;-73
2023/03/06 01:17:03;;;;;;;;;;;4.20;99.90;;;;;;5089164;28;20341;-72
2023/03/06 01:19:28;;;;;;;;;;;4.20;99.90;;;;;;5089090;28;19942;-73
2023/03/06 01:21:53;;;;;;;;;;;4.20;99.90;;;;;;5088940;28;19962;-74
2023/03/06 01:24:19;;;;;;;;;;;4.20;99.90;;;;;;5101624;28;19952;-73
2023/03/06 01:26:45;;;;;;;;;;;4.20;99.90;;;;;;5104252;28;19920;-74
2023/03/06 01:29:10;;;;;;;;;;;4.20;99.90;;;;;;5088471;28;20010;-73
2023/03/06 01:31:36;;;;;;;;;;;4.20;99.90;;;;;;5088051;28;19973;-74
2023/03/06 01:34:01;;;;;;;;;;;4.20;99.90;;;;;;5088153;28;19912;-74
2023/03/06 01:36:27;;;;;;;;;;;4.20;99.90;;;;;;5088020;28;19920;-73
2023/03/06 01:38:52;;;;;;;;;;;4.20;99.90;;;;;;5088120;28;20327;-73
2023/03/06 01:41:20;;;;;;;;;;;4.20;99.90;;;;;;5087750;28;19908;-73
2023/03/06 01:43:46;;;;;;;;;;;4.20;99.90;;;;;;5088884;28;19951;-74
2023/03/06 01:46:11;;;;;;;;;;;4.20;99.90;;;;;;5088280;28;19989;-73
2023/03/06 01:48:37;;;;;;;;;;;4.20;99.90;;;;;;5088620;28;19912;-74
2023/03/06 01:51:02;;;;;;;;;;;4.20;99.90;;;;;;5088381;28;19919;-73
2023/03/06 01:53:28;;;;;;;;;;;4.20;99.90;;;;;;5095476;28;19919;-73
2023/03/06 01:55:54;;;;;;;;;;;4.20;99.90;;;;;;5108917;28;19922;-73
2023/03/06 01:58:19;;;;;;;;;;;4.20;99.90;;;;;;5108980;28;19915;-74
2023/03/06 02:00:45;;;;;;;;;;;4.20;99.90;;;;;;5107778;28;20000;-74
2023/03/06 02:03:17;;;;;;;;;;;4.20;99.90;;;;;;5108474;28;19954;-73
2023/03/06 02:05:43;;;;;;;;;;;4.20;99.90;;;;;;5108471;28;19919;-73
2023/03/06 02:08:10;;;;;;;;;;;4.20;99.90;;;;;;5107398;28;19911;-73
2023/03/06 02:10:36;;;;;;;;;;;4.20;99.90;;;;;;5086296;28;19912;-73
2023/03/06 02:13:01;;;;;;;;;;;4.20;99.90;;;;;;5087848;28;19919;-73
2023/03/06 02:15:28;;;;;;;;;;;4.20;99.90;;;;;;5087881;28;19919;-73
2023/03/06 02:17:53;;;;;;;;;;;4.20;99.90;;;;;;5106751;28;20509;-73
2023/03/06 02:20:22;;;;;;;;;;;4.20;99.90;;;;;;5108228;28;19919;-74
2023/03/06 02:22:51;;;;;;;;;;;4.10;99.90;;;;;;5108141;28;19916;-73
2023/03/06 02:25:35;;;;;;;;;;;4.20;99.90;;;;;;5108039;28;20010;-74
2023/03/06 02:28:00;;;;;;;;;;;4.10;99.90;;;;;;5108365;28;19912;-73
2023/03/06 02:30:27;;;;;;;;;;;4.10;99.90;;;;;;5108339;28;19919;-73
2023/03/06 02:32:52;;;;;;;;;;;4.10;99.90;;;;;;5098808;28;19963;-73
2023/03/06 02:35:26;;;;;;;;;;;4.10;99.90;;;;;;5087980;28;19943;-73
2023/03/06 02:37:53;;;;;;;;;;;4.10;99.90;;;;;;5088123;28;19912;-74
2023/03/06 02:40:19;;;;;;;;;;;4.10;99.90;;;;;;5088172;28;19939;-74
2023/03/06 02:42:46;;;;;;;;;;;4.10;99.90;;;;;;5090834;28;19927;-74
2023/03/06 02:45:13;;;;;;;;;;;4.10;99.90;;;;;;5087363;28;20462;-73
2023/03/06 02:47:39;;;;;;;;;;;4.10;99.90;;;;;;5087844;28;20006;-73
2023/03/06 02:50:04;;;;;;;;;;;4.10;99.90;;;;;;5089039;28;19946;-73
2023/03/06 02:52:30;;;;;;;;;;;4.10;99.90;;;;;;5087892;28;20356;-73
2023/03/06 02:54:55;;;;;;;;;;;4.10;99.90;;;;;;5107512;28;19915;-74
2023/03/06 02:57:21;;;;;;;;;;;4.10;99.90;;;;;;5111987;27;19993;-73
2023/03/06 02:59:46;;;;;;;;;;;4.10;99.90;;;;;;5112035;28;19919;-74
2023/03/06 03:02:12;;;;;;;;;;;4.10;99.90;;;;;;5112043;28;19923;-73
2023/03/06 03:04:37;;;;;;;;;;;4.10;99.90;;;;;;5106900;28;19967;-74
2023/03/06 03:07:03;;;;;;;;;;;4.10;99.90;;;;;;5091399;28;19912;-73
2023/03/06 03:09:28;;;;;;;;;;;4.10;99.90;;;;;;5090598;28;19912;-74
2023/03/06 03:11:54;;;;;;;;;;;4.10;99.90;;;;;;5090852;28;19993;-73
2023/03/06 03:14:19;;;;;;;;;;;4.10;99.90;;;;;;5090621;28;19955;-74
2023/03/06 03:16:45;;;;;;;;;;;4.10;99.90;;;;;;5091170;28;19916;-73
2023/03/06 03:19:10;;;;;;;;;;;4.10;99.90;;;;;;5101744;28;19919;-73
2023/03/06 03:21:37;;;;;;;;;;;4.10;99.90;;;;;;5111653;28;19966;-73
2023/03/06 03:24:03;;;;;;;;;;;4.10;99.90;;;;;;5108469;28;19912;-73
2023/03/06 03:26:28;;;;;;;;;;;4.10;99.90;;;;;;5090875;28;20300;-74
2023/03/06 03:28:54;;;;;;;;;;;4.10;99.90;;;;;;5091152;28;19916;-73
2023/03/06 03:31:19;;;;;;;;;;;4.10;99.90;;;;;;5090472;28;19969;-73
2023/03/06 03:33:45;;;;;;;;;;;4.10;99.90;;;;;;5090983;28;19981;-73
2023/03/06 03:36:10;;;;;;;;;;;4.10;99.90;;;;;;5110242;28;19912;-73
2023/03/06 03:38:36;;;;;;;;;;;4.10;99.90;;;;;;5111151;28;19912;-73
2023/03/06 03:41:02;;;;;;;;;;;4.10;99.90;;;;;;5108183;28;19919;-73
2023/03/06 03:43:28;;;;;;;;;;;4.10;99.90;;;;;;5089083;28;20381;-73
2023/03/06 03:45:53;;;;;;;;;;;4.00;99.90;;;;;;5090536;28;19923;-73
2023/03/06 03:48:19;;;;;;;;;;;4.00;99.90;;;;;;5090826;28;19912;-73
2023/03/06 03:50:44;;;;;;;;;;;4.00;99.90;;;;;;5098252;28;19923;-73
2023/03/06 03:53:10;;;;;;;;;;;4.00;99.90;;;;;;5110855;28;20458;-73
2023/03/06 03:55:36;;;;;;;;;;;4.00;99.90;;;;;;5109315;28;19908;-73
2023/03/06 03:58:01;;;;;;;;;;;4.00;99.90;;;;;;5110920;28;19912;-73
2023/03/06 04:00:27;;;;;;;;;;;4.10;99.90;;;;;;5110754;28;19912;-73
2023/03/06 04:02:52;;;;;;;;;;;4.00;99.90;;;;;;5110497;28;19919;-73
2023/03/06 04:05:18;;;;;;;;;;;4.00;99.90;;;;;;5110491;28;19912;-73
2023/03/06 04:07:43;;;;;;;;;;;4.00;99.90;;;;;;5098654;28;19927;-72
2023/03/06 04:10:10;;;;;;;;;;;4.00;99.90;;;;;;5089388;28;20067;-73
2023/03/06 04:12:35;;;;;;;;;;;4.00;99.90;;;;;;5090241;28;20331;-74
2023/03/06 04:15:02;;;;;;;;;;;4.00;99.90;;;;;;5088577;28;19919;-73
2023/03/06 04:17:27;;;;;;;;;;;4.00;99.90;;;;;;5100205;28;19920;-73
2023/03/06 04:19:53;;;;;;;;;;;4.00;99.90;;;;;;5101752;28;19915;-73
2023/03/06 04:22:18;;;;;;;;;;;4.00;99.90;;;;;;5109576;28;19912;-74
2023/03/06 04:24:44;;;;;;;;;;;4.00;99.90;;;;;;5108637;28;19927;-73
2023/03/06 04:27:09;;;;;;;;;;;4.00;99.90;;;;;;5110401;28;20386;-73
2023/03/06 04:29:35;;;;;;;;;;;4.00;99.90;;;;;;5110346;28;19934;-74
2023/03/06 04:32:01;;;;;;;;;;;4.00;99.90;;;;;;5110077;28;19912;-73
2023/03/06 04:34:26;;;;;;;;;;;4.00;99.90;;;;;;5109741;28;19935;-73
2023/03/06 04:36:52;;;;;;;;;;;4.00;99.90;;;;;;5108578;28;20352;-73
2023/03/06 04:39:17;;;;;;;;;;;4.00;99.90;;;;;;5104202;28;19927;-73
2023/03/06 04:41:43;;;;;;;;;;;4.00;99.90;;;;;;5079628;28;20483;-74
2023/03/06 04:44:08;;;;;;;;;;;4.00;99.90;;;;;;5068814;28;19924;-73
2023/03/06 04:46:34;;;;;;;;;;;4.00;99.90;;;;;;5085565;28;19927;-73
2023/03/06 04:48:59;;;;;;;;;;;4.00;99.90;;;;;;5089304;28;20017;-73
2023/03/06 04:51:25;;;;;;;;;;;4.00;99.90;;;;;;5089477;28;19998;-73
2023/03/06 04:53:51;;;;;;;;;;;3.90;99.90;;;;;;5099809;28;20022;-73
2023/03/06 04:56:16;;;;;;;;;;;3.90;99.90;;;;;;5108884;28;20010;-73
2023/03/06 04:58:42;;;;;;;;;;;3.90;99.90;;;;;;5108192;28;19999;-73
2023/03/06 05:01:08;;;;;;;;;;;3.90;99.90;;;;;;5109428;28;19911;-74
2023/03/06 05:03:33;;;;;;;;;;;3.90;99.90;;;;;;5109307;28;20026;-73
2023/03/06 05:05:59;;;;;;;;;;;3.90;99.90;;;;;;5109691;28;19911;-73
2023/03/06 05:08:24;;;;;;;;;;;3.90;99.90;;;;;;5109742;28;20303;-73
2023/03/06 05:10:54;;;;;;;;;;;3.90;99.90;;;;;;5088395;28;20344;-73
2023/03/06 05:13:20;;;;;;;;;;;3.90;99.90;;;;;;5106888;28;20361;-73
2023/03/06 05:15:45;;;;;;;;;;;3.90;99.90;;;;;;5099405;28;19912;-74
2023/03/06 05:18:11;;;;;;;;;;;3.90;99.90;;;;;;5088354;28;19916;-73
2023/03/06 05:20:36;;;;;;;;;;;3.90;99.90;;;;;;5088674;28;19916;-74
2023/03/06 05:23:02;;;;;;;;;;;3.90;99.90;;;;;;5092414;28;19916;-73
2023/03/06 05:25:27;;;;;;;;;;;3.90;99.90;;;;;;5108707;28;20029;-73
2023/03/06 05:27:53;;;;;;;;;;;3.90;99.90;;;;;;5103001;27;19916;-73
2023/03/06 05:30:20;;;;;;;;;;;3.90;99.90;;;;;;5088486;28;19996;-73
2023/03/06 05:32:46;;;;;;;;;;;3.90;99.90;;;;;;5086650;28;19915;-73
2023/03/06 05:35:15;;;;;;;;;;;3.90;99.90;;;;;;5088143;28;19912;-74
2023/03/06 05:37:41;;;;;;;;;;;3.90;99.90;;;;;;5088663;28;19920;-73
2023/03/06 05:40:08;;;;;;;;;;;3.90;99.90;;;;;;5087789;28;20017;-73
2023/03/06 05:42:33;;;;;;;;;;;3.90;99.90;;;;;;5072432;28;19913;-73
2023/03/06 05:45:00;;;;;;;;;;;3.80;99.90;;;;;;5080011;28;19916;-73
2023/03/06 05:47:26;;;;;;;;;;;3.80;99.90;;;;;;5087097;28;19912;-73
2023/03/06 05:49:51;;;;;;;;;;;3.80;99.90;;;;;;5095678;28;19912;-73
2023/03/06 05:52:16;;;;;;;;;;;3.80;99.90;;;;;;5108585;28;19911;-73
2023/03/06 05:54:42;;;;;;;;;;;3.80;99.90;;;;;;5108407;28;19912;-73
2023/03/06 05:57:08;;;;;;;;;;;3.80;99.90;;;;;;5108932;28;19908;-73
2023/03/06 05:59:34;;;;;;;;;;;3.80;99.90;;;;;;5108906;28;19912;-73
2023/03/06 06:02:02;;;;;;;;;;;3.80;99.90;;;;;;5108640;28;19912;-73
2023/03/06 06:04:28;;;;;;;;;;;3.80;99.90;;;;;;5105860;28;19934;-73
2023/03/06 06:06:54;;;;;;;;;;;3.80;99.90;;;;;;5094509;28;19919;-73
2023/03/06 06:09:21;;;;;;;;;;;3.80;99.90;;;;;;5087539;28;20398;-73
2023/03/06 06:11:49;;;;;;;;;;;3.80;99.90;;;;;;5087807;28;20340;-73
2023/03/06 06:14:14;;;;;;;;;;;3.80;99.90;;;;;;5087740;28;19961;-73
2023/03/06 06:16:40;;;;;;;;;;;3.80;99.90;;;;;;5088087;28;20016;-73
2023/03/06 06:19:06;;;;;;;;;;;3.80;99.90;;;;;;5087956;28;20399;-73
2023/03/06 06:21:31;;;;;;;;;;;3.80;99.90;;;;;;5106462;28;19915;-73
2023/03/06 06:23:57;;;;;;;;;;;3.80;99.90;;;;;;5106432;28;20444;-73
2023/03/06 06:26:22;;;;;;;;;;;3.80;99.90;;;;;;5108332;28;19999;-73
2023/03/06 06:28:48;;;;;;;;;;;3.80;99.90;;;;;;5108527;28;19939;-73
2023/03/06 06:31:13;;;;;;;;;;;3.80;99.90;;;;;;5110541;28;19930;-73
2023/03/06 06:33:39;;;;;;;;;;;3.80;99.90;;;;;;5112267;28;19911;-72
2023/03/06 06:36:13;;;;;;;;;;;3.80;99.90;;;;;;5107678;28;19927;-73
2023/03/06 06:38:38;;;;;;;;;;;3.80;99.90;;;;;;5092238;28;19912;-73
2023/03/06 06:41:04;;;;;;;;;;;3.80;99.90;;;;;;5088901;28;19919;-73
2023/03/06 06:43:30;;;;;;;;;;;3.90;99.90;;;;;;5071261;28;19916;-73
2023/03/06 06:45:57;;;;;;;;;;;3.90;99.90;;;;;;5125270;27;19912;-73
2023/03/06 06:48:22;;;;;;;;;;;3.80;99.90;;;;;;5112191;28;20365;-73
2023/03/06 06:50:53;;;;;;;;;;;3.80;99.90;;;;;;5112306;28;19915;-73
2023/03/06 06:53:19;;;;;;;;;;;3.80;99.90;;;;;;5111990;28;19911;-74
2023/03/06 06:55:44;;;;;;;;;;;3.90;99.90;;;;;;5112009;28;20391;-73
2023/03/06 06:58:10;;;;;;;;;;;3.80;99.90;;;;;;5112068;28;19916;-73
2023/03/06 07:00:35;;;;;;;;;;;3.80;99.90;;;;;;5111252;28;20466;-73
2023/03/06 07:03:01;;;;;;;;;;;3.80;99.90;;;;;;5111721;28;19930;-74
2023/03/06 07:05:26;;;;;;;;;;;3.80;99.90;;;;;;5110362;28;19973;-73
2023/03/06 07:07:52;;;;;;;;;;;3.80;99.90;;;;;;5112033;28;19911;-74
2023/03/06 07:10:17;;;;;;;;;;;3.80;99.90;;;;;;5095328;28;19912;-73
2023/03/06 07:12:43;;;;;;;;;;;3.80;99.90;;;;;;5105248;28;20361;-73
2023/03/06 07:15:10;;;;;;;;;;;3.80;99.90;;;;;;5111370;28;19912;-73
2023/03/06 07:17:36;;;;;;;;;;;3.80;99.90;;;;;;5111778;27;19959;-73
2023/03/06 07:20:02;;;;;;;;;;;3.80;99.90;;;;;;5111827;28;20532;-73
2023/03/06 07:22:28;;;;;;;;;;;3.90;99.90;;;;;;5111841;28;19915;-74
2023/03/06 07:24:53;;;;;;;;;;;3.80;99.80;;;;;;5091421;28;19916;-74
2023/03/06 07:27:19;;;;;;;;;;;3.80;99.90;;;;;;5091147;28;19916;-73
2023/03/06 07:29:44;;;;;;;;;;;3.80;99.90;;;;;;5091018;28;20654;-73
2023/03/06 07:32:10;;;;;;;;;;;3.80;99.90;;;;;;5090710;28;19912;-74
2023/03/06 07:34:36;;;;;;;;;;;3.80;99.80;;;;;;5090682;28;19913;-73
2023/03/06 07:37:02;;;;;;;;;;;3.80;99.90;;;;;;5094613;28;20030;-73
2023/03/06 07:39:28;;;;;;;;;;;3.90;99.90;;;;;;5111092;28;19998;-73
2023/03/06 07:41:54;;;;;;;;;;;3.80;99.90;;;;;;5100298;28;20003;-74
2023/03/06 07:44:20;;;;;;;;;;;3.90;99.90;;;;;;5090190;28;20349;-73
2023/03/06 07:46:46;;;;;;;;;;;3.90;99.90;;;;;;5108804;28;19919;-73
2023/03/06 07:49:12;;;;;;;;;;;3.90;99.90;;;;;;5111192;28;20475;-74
2023/03/06 07:51:37;;;;;;;;;;;3.90;99.80;;;;;;5110518;28;19912;-74
2023/03/06 07:54:03;;;;;;;;;;;3.90;99.90;;;;;;5110641;27;19969;-73
2023/03/06 07:56:28;;;;;;;;;;;3.90;99.80;;;;;;5110836;28;20351;-73
2023/03/06 07:58:54;;;;;;;;;;;3.90;99.80;;;;;;5110811;28;20380;-73
2023/03/06 08:01:22;;;;;;;;;;;3.90;99.80;;;;;;5110806;28;20387;-73
2023/03/06 08:03:48;;;;;;;;;;;3.90;99.80;;;;;;5110585;28;19951;-74
2023/03/06 08:06:16;;;;;;;;;;;3.90;99.90;;;;;;5109444;28;19922;-74
2023/03/06 08:08:42;;;;;;;;;;;3.90;99.80;;;;;;5090575;28;19911;-73
2023/03/06 08:11:08;;;;;;;;;;;4.00;99.80;;;;;;5091862;28;19915;-73
2023/03/06 08:13:34;;;;;;;;;;;4.00;99.80;;;;;;5093708;28;19919;-73
2023/03/06 08:16:00;;;;;;;;;;;4.00;99.80;;;;;;5089925;28;19912;-73
2023/03/06 08:18:26;;;;;;;;;;;4.00;99.80;;;;;;5090120;28;19956;-73
2023/03/06 08:21:02;;;;;;;;;;;4.00;99.70;;;;;;5088764;28;19912;-74
2023/03/06 08:23:28;;;;;;;;;;;4.00;99.70;;;;;;5097112;28;19920;-73
2023/03/06 08:25:55;;;;;;;;;;;4.00;99.70;;;;;;5109574;28;20289;-73
2023/03/06 08:28:20;;;;;;;;;;;4.10;99.80;;;;;;5110318;28;19990;-73
2023/03/06 08:30:46;;;;;;;;;;;4.10;99.80;;;;;;5110216;28;19999;-73
2023/03/06 08:33:11;;;;;;;;;;;4.10;99.70;;;;;;5108768;28;19912;-74
2023/03/06 08:35:37;;;;;;;;;;;4.10;99.70;;;;;;5103897;28;19916;-73
2023/03/06 08:38:02;;;;;;;;;;;4.10;99.70;;;;;;5089814;28;19919;-73
2023/03/06 08:40:29;;;;;;;;;;;4.10;99.60;;;;;;5089615;28;20268;-73
2023/03/06 08:42:54;;;;;;;;;;;4.20;99.70;;;;;;5088019;28;19981;-74
2023/03/06 08:45:20;;;;;;;;;;;4.20;99.70;;;;;;5094916;28;20356;-74
2023/03/06 08:47:45;;;;;;;;;;;4.20;99.70;;;;;;5109978;28;19953;-73
2023/03/06 08:50:11;;;;;;;;;;;4.20;99.70;;;;;;5108470;28;19915;-73
2023/03/06 08:52:36;;;;;;;;;;;4.20;99.70;;;;;;5108955;28;19966;-73
2023/03/06 08:55:02;;;;;;;;;;;4.20;99.60;;;;;;5089130;28;20060;-74
2023/03/06 08:57:28;;;;;;;;;;;4.20;99.70;;;;;;5089400;28;20368;-73
2023/03/06 08:59:54;;;;;;;;;;;4.20;99.70;;;;;;5089306;28;19977;-73
2023/03/06 09:02:19;;;;;;;;;;;4.20;99.80;;;;;;5089254;28;20431;-73
2023/03/06 09:04:44;;;;;;;;;;;4.20;99.80;;;;;;5089321;28;19916;-73
2023/03/06 09:07:11;;;;;;;;;;;4.20;99.80;;;;;;5089591;28;19951;-73
2023/03/06 09:09:36;;;;;;;;;;;4.20;99.80;;;;;;5094014;28;19916;-73
2023/03/06 09:12:02;;;;;;;;;;;4.20;99.80;;;;;;5088521;28;20387;-73
2023/03/06 09:14:28;;;;;;;;;;;4.20;99.90;;;;;;5088547;28;20281;-73
2023/03/06 09:16:53;;;;;;;;;;;4.20;99.80;;;;;;5088746;28;19943;-72
2023/03/06 09:19:19;;;;;;;;;;;4.20;99.80;;;;;;5088793;28;19963;-73
2023/03/06 09:21:44;;;;;;;;;;;4.20;99.90;;;;;;5091384;28;19916;-73
2023/03/06 09:24:10;;;;;;;;;;;4.20;99.90;;;;;;5108654;28;20010;-72
2023/03/06 09:26:35;;;;;;;;;;;4.20;99.90;;;;;;5108575;28;19923;-73
2023/03/06 09:29:01;;;;;;;;;;;4.20;99.90;;;;;;5088762;28;19912;-73
2023/03/06 09:31:27;;;;;;;;;;;4.20;99.90;;;;;;5073778;28;19916;-73
2023/03/06 09:33:52;;;;;;;;;;;4.20;99.90;;;;;;5082527;28;19977;-73
2023/03/06 09:36:19;;;;;;;;;;;4.20;99.90;;;;;;5088686;28;19908;-73
2023/03/06 09:38:46;;;;;;;;;;;4.20;99.90;;;;;;5091656;28;20064;-73
2023/03/06 09:41:26;;;;;;;;;;;4.20;99.90;;;;;;5089285;28;19920;-73
2023/03/06 09:43:53;;;;;;;;;;;4.20;99.90;;;;;;5087170;28;19915;-73
2023/03/06 09:46:25;;;;;;;;;;;4.30;99.90;;;;;;5086806;28;20299;-73
2023/03/06 09:49:14;;;;;;;;;;;4.20;99.90;;;;;;5086758;28;20053;-73
2023/03/06 09:52:12;;;;;;;;;;;4.30;99.90;;;;;;5088844;28;19927;-73
2023/03/06 09:54:45;;;;;;;;;;;4.30;99.90;;;;;;5058725;28;19953;-73
2023/03/06 09:57:15;;;;;;;;;;;4.30;99.90;;;;;;5108022;28;20375;-73
2023/03/06 09:59:44;;;;;;;;;;;4.30;99.90;;;;;;5108265;28;20356;-74
2023/03/06 10:02:14;;;;;;;;;;;4.30;99.90;;;;;;5108309;28;20380;-74
2023/03/06 10:04:41;;;;;;;;;;;4.30;99.90;;;;;;5107761;28;19916;-74
2023/03/06 10:07:13;;;;;;;;;;;4.30;99.90;;;;;;5108404;28;19908;-74
2023/03/06 10:09:41;;;;;;;;;;;4.40;99.90;;;;;;5091985;28;20543;-74
2023/03/06 10:12:27;;;;;;;;;;;4.30;99.90;;;;;;5076084;28;19915;-74
2023/03/06 10:15:19;;;;;;;;;;;4.30;99.90;;;;;;5071506;28;19913;-73
2023/03/06 10:17:44;;;;;;;;;;;4.40;99.90;;;;;;5082641;28;19924;-74
2023/03/06 10:20:19;;;;;;;;;;;4.30;99.90;;;;;;5095901;28;19918;-73
2023/03/06 10:22:52;;;;;;;;;;;4.40;99.90;;;;;;5089075;28;19939;-74
2023/03/06 10:25:29;;;;;;;;;;;4.30;99.90;;;;;;5096405;28;20327;-73
2023/03/06 10:28:03;;;;;;;;;;;4.30;99.90;;;;;;5084129;28;20396;-73
2023/03/06 10:30:41;;;;;;;;;;;4.40;99.90;;;;;;5087921;28;19912;-73
2023/03/06 10:33:25;;;;;;;;;;;4.40;99.90;;;;;;5087586;28;19908;-73
2023/03/06 10:35:52;;;;;;;;;;;4.40;99.90;;;;;;5087609;28;20026;-74
2023/03/06 10:38:22;;;;;;;;;;;4.50;99.90;;;;;;5086083;28;20528;-74
2023/03/06 10:40:48;;;;;;;;;;;4.50;99.90;;;;;;5089739;28;19911;-73
2023/03/06 10:43:13;;;;;;;;;;;4.50;99.90;;;;;;5093678;28;19943;-74
2023/03/06 10:45:49;;;;;;;;;;;4.50;99.80;;;;;;5092311;28;20285;-74
2023/03/06 10:48:19;;;;;;;;;;;4.50;99.80;;;;;;5087432;28;19912;-74
2023/03/06 10:50:45;;;;;;;;;;;4.50;99.80;;;;;;5085912;28;19913;-74
2023/03/06 10:53:19;;;;;;;;;;;4.60;99.80;;;;;;5091069;28;19919;-74
2023/03/06 10:55:49;;;;;;;;;;;4.60;99.90;;;;;;5107581;28;19957;-73
2023/03/06 10:58:16;;;;;;;;;;;4.60;99.80;;;;;;5107073;28;19916;-74
2023/03/06 11:00:42;;;;;;;;;;;4.60;99.90;;;;;;5107727;28;19908;-73
2023/03/06 11:03:21;;;;;;;;;;;4.60;99.90;;;;;;5107491;28;19916;-74
2023/03/06 11:05:54;;;;;;;;;;;4.60;99.90;;;;;;5107707;28;19912;-74
2023/03/06 11:08:21;;;;;;;;;;;4.60;99.80;;;;;;5107584;28;19922;-74
2023/03/06 11:10:57;;;;;;;;;;;4.60;99.80;;;;;;5084134;28;20266;-73
2023/03/06 11:13:24;;;;;;;;;;;4.70;99.80;;;;;;5085640;28;19999;-73
2023/03/06 11:15:58;;;;;;;;;;;4.70;99.70;;;;;;5088452;28;20390;-73
2023/03/06 11:18:33;;;;;;;;;;;4.70;99.70;;;;;;5091005;28;20009;-73
2023/03/06 11:21:00;;;;;;;;;;;4.80;99.60;;;;;;5091133;28;20285;-74
2023/03/06 11:23:31;;;;;;;;;;;4.90;99.50;;;;;;5097435;28;19923;-74
2023/03/06 11:26:11;;;;;;;;;;;4.80;99.40;;;;;;5111072;28;19958;-74
2023/03/06 11:28:39;;;;;;;;;;;4.90;99.30;;;;;;5111367;28;19919;-73
2023/03/06 11:31:05;;;;;;;;;;;5.00;99.30;;;;;;5110669;28;20343;-74
2023/03/06 11:33:45;;;;;;;;;;;5.00;99.20;;;;;;5104890;28;19916;-74
2023/03/06 11:36:17;;;;;;;;;;;5.10;99.10;;;;;;5090992;28;19908;-74
2023/03/06 11:38:50;;;;;;;;;;;5.10;99.00;;;;;;5090926;28;19912;-74
2023/03/06 11:41:30;;;;;;;;;;;5.10;99.00;;;;;;5090501;28;19912;-73
2023/03/06 11:44:10;;;;;;;;;;;5.10;99.00;;;;;;5090102;28;19923;-73
2023/03/06 11:46:40;;;;;;;;;;;5.10;99.00;;;;;;5090694;28;19919;-74
2023/03/06 11:49:15;;;;;;;;;;;5.20;99.10;;;;;;5108395;28;19920;-74
2023/03/06 11:51:43;;;;;;;;;;;5.20;98.90;;;;;;5110919;28;19908;-74
2023/03/06 11:54:11;;;;;;;;;;;5.20;98.90;;;;;;5109038;28;19950;-74
2023/03/06 11:56:36;;;;;;;;;;;5.30;98.80;;;;;;5110735;28;19922;-74
2023/03/06 11:59:02;;;;;;;;;;;5.30;98.80;;;;;;5110847;28;20380;-74
2023/03/06 12:01:36;;;;;;;;;;;5.30;98.80;;;;;;5110653;28;19908;-74
2023/03/06 12:04:10;;;;;;;;;;;5.30;98.80;;;;;;5102436;28;19920;-74
2023/03/06 12:06:36;;;;;;;;;;;5.40;98.70;;;;;;5090214;28;19915;-74
2023/03/06 12:09:08;;;;;;;;;;;5.40;98.60;;;;;;5084925;28;19912;-74
2023/03/06 12:11:52;;;;;;;;;;;5.40;98.60;;;;;;5089574;28;20003;-73
2023/03/06 12:14:33;;;;;;;;;;;5.50;98.60;;;;;;5089890;28;20522;-74
2023/03/06 12:16:58;;;;;;;;;;;5.50;98.60;;;;;;5090125;28;20274;-73
2023/03/06 12:19:42;;;;;;;;;;;5.50;98.40;;;;;;5090093;28;19924;-74
2023/03/06 12:22:43;;;;;;;;;;;5.50;98.50;;;;;;5105416;28;19912;-74
2023/03/06 12:25:19;;;;;;;;;;;5.50;98.50;;;;;;5046473;28;19916;-74
2023/03/06 12:27:45;;;;;;;;;;;5.50;98.40;;;;;;5066439;28;20307;-74
2023/03/06 12:30:17;;;;;;;;;;;5.50;98.40;;;;;;5068252;28;19913;-73
2023/03/06 12:32:59;;;;;;;;;;;5.50;98.50;;;;;;5069348;28;19919;-74
2023/03/06 12:35:43;;;;;;;;;;;5.50;98.50;;;;;;5094690;28;20028;-73
2023/03/06 12:38:14;;;;;;;;;;;5.50;98.50;;;;;;5110053;28;19912;-74
2023/03/06 12:40:46;;;;;;;;;;;5.50;98.40;;;;;;5109976;28;20511;-74
2023/03/06 12:43:37;;;;;;;;;;;5.50;98.50;;;;;;5068929;28;20019;-73
2023/03/06 12:46:09;;;;;;;;;;;5.60;98.40;;;;;;5064227;28;20354;-74
2023/03/06 12:48:36;;;;;;;;;;;5.60;98.40;;;;;;5095031;28;20646;-74
2023/03/06 12:51:02;;;;;;;;;;;5.70;98.40;;;;;;5109922;28;19916;-73
2023/03/06 12:53:29;;;;;;;;;;;5.70;98.30;;;;;;5109563;27;20492;-73
2023/03/06 12:55:55;;;;;;;;;;;5.80;98.30;;;;;;5108372;28;19916;-74
2023/03/06 12:58:27;;;;;;;;;;;5.80;98.20;;;;;;5109685;28;19908;-74
2023/03/06 13:00:52;;;;;;;;;;;5.80;98.20;;;;;;5109420;28;20388;-74
2023/03/06 13:03:27;;;;;;;;;;;5.80;98.20;;;;;;5109264;28;19912;-74
2023/03/06 13:05:52;;;;;;;;;;;5.80;98.20;;;;;;5094778;28;19966;-74
2023/03/06 13:08:28;;;;;;;;;;;5.80;98.10;;;;;;5087484;28;19959;-73
2023/03/06 13:11:06;;;;;;;;;;;5.80;98.20;;;;;;5085229;28;20429;-74
2023/03/06 13:13:32;;;;;;;;;;;5.80;98.10;;;;;;5088728;28;19912;-74
2023/03/06 13:16:16;;;;;;;;;;;5.90;98.10;;;;;;5088762;28;19912;-74
2023/03/06 13:18:42;;;;;;;;;;;5.90;98.10;;;;;;5088802;28;20014;-74
2023/03/06 13:21:26;;;;;;;;;;;5.90;98.00;;;;;;5087660;28;20057;-74
2023/03/06 13:24:02;;;;;;;;;;;5.90;98.00;;;;;;5097842;28;19950;-73
2023/03/06 13:26:27;;;;;;;;;;;5.90;97.90;;;;;;5108908;28;19915;-74
2023/03/06 13:28:56;;;;;;;;;;;5.90;97.80;;;;;;5092487;28;20340;-74
2023/03/06 13:31:25;;;;;;;;;;;5.90;97.90;;;;;;5088369;28;19912;-74
2023/03/06 13:33:53;;;;;;;;;;;6.00;97.90;;;;;;5088272;28;19918;-74
2023/03/06 13:36:20;;;;;;;;;;;6.00;97.80;;;;;;5088321;28;19908;-73
2023/03/06 13:39:04;;;;;;;;;;;6.00;97.70;;;;;;5088896;27;19956;-74
2023/03/06 13:41:30;;;;;;;;;;;6.00;97.70;;;;;;5081162;28;19912;-73
2023/03/06 13:43:57;;;;;;;;;;;6.00;97.70;;;;;;5099944;28;19917;-73
2023/03/06 13:46:28;;;;;;;;;;;6.00;97.70;;;;;;5077334;28;20588;-74
2023/03/06 13:49:03;;;;;;;;;;;5.90;97.80;;;;;;5088506;28;20123;-73
2023/03/06 13:51:32;;;;;;;;;;;5.90;98.00;;;;;;5088642;28;19915;-74
2023/03/06 13:54:09;;;;;;;;;;;6.00;98.00;;;;;;5094884;28;20265;-74
2023/03/06 13:56:53;;;;;;;;;;;6.00;97.80;;;;;;5094159;28;20620;-74
2023/03/06 13:59:37;;;;;;;;;;;6.00;97.70;;;;;;5088270;28;19915;-74
2023/03/06 14:02:03;;;;;;;;;;;6.10;97.40;;;;;;5086538;28;19926;-74
2023/03/06 14:04:41;;;;;;;;;;;6.20;97.50;;;;;;5086287;28;19916;-74
2023/03/06 14:07:07;;;;;;;;;;;6.20;97.50;;;;;;5088315;28;19919;-73
2023/03/06 14:09:55;;;;;;;;;;;6.30;97.30;;;;;;5085116;28;19912;-74
2023/03/06 14:12:23;;;;;;;;;;;6.30;97.20;;;;;;5074354;28;20347;-73
2023/03/06 14:14:54;;;;;;;;;;;6.30;97.30;;;;;;5099102;28;19912;-73
2023/03/06 14:17:22;;;;;;;;;;;6.40;97.30;;;;;;5089025;28;19919;-73
2023/03/06 14:19:48;;;;;;;;;;;6.40;97.20;;;;;;5087262;28;19947;-74
2023/03/06 14:22:16;;;;;;;;;;;6.40;97.00;;;;;;5087242;28;20020;-73
2023/03/06 14:24:43;;;;;;;;;;;6.40;96.80;;;;;;5104696;28;19991;-74
2023/03/06 14:27:15;;;;;;;;;;;6.40;96.90;;;;;;5107365;28;19908;-74
2023/03/06 14:29:41;;;;;;;;;;;6.40;97.00;;;;;;5067178;28;19915;-73
2023/03/06 14:32:07;;;;;;;;;;;6.50;97.10;;;;;;5066834;28;19912;-73
2023/03/06 14:34:37;;;;;;;;;;;6.50;97.00;;;;;;5066407;28;19913;-73
2023/03/06 14:37:08;;;;;;;;;;;6.50;97.00;;;;;;5067114;28;19920;-74